createdAt,value
2017-11-11T00:01:19.773Z,8.07
2017-11-11T00:03:46.742Z,9.57
2017-11-11T00:06:13.705Z,12.30
2017-11-11T00:08:40.641Z,11.43
2017-11-11T00:11:07.531Z,7.20
2017-11-11T00:13:35.225Z,12.37
2017-11-11T00:16:03.565Z,9.75
2017-11-11T00:18:31.404Z,8.75
2017-11-11T00:20:58.361Z,9.63
2017-11-11T00:23:25.254Z,8.85
2017-11-11T00:25:52.206Z,8.65
2017-11-11T00:28:19.136Z,10.80
2017-11-11T00:30:46.025Z,8.55
2017-11-11T00:33:12.971Z,13.57
2017-11-11T00:35:39.850Z,6.87
2017-11-11T00:38:08.815Z,9.70
2017-11-11T00:40:35.694Z,9.35
2017-11-11T00:43:02.645Z,11.48
2017-11-11T00:45:29.586Z,6.82
2017-11-11T00:47:57.213Z,7.85
2017-11-11T00:50:24.181Z,11.07
2017-11-11T00:52:51.867Z,9.68
2017-11-11T00:55:18.725Z,8.38
2017-11-11T00:57:45.669Z,8.10
2017-11-11T01:00:12.688Z,8.43
2017-11-11T01:02:40.425Z,7.05
2017-11-11T01:05:07.321Z,8.15
2017-11-11T01:07:34.314Z,7.25
2017-11-11T01:10:01.192Z,6.90
2017-11-11T01:12:28.822Z,4.78
2017-11-11T01:14:55.774Z,10.50
2017-11-11T01:17:22.652Z,11.12
2017-11-11T01:19:50.340Z,8.23
2017-11-11T01:22:17.238Z,10.27
2017-11-11T01:24:44.176Z,12.45
2017-11-11T01:27:11.083Z,10.52
2017-11-11T01:29:38.028Z,9.40
2017-11-11T01:32:05.113Z,9.25
2017-11-11T01:34:32.193Z,7.78
2017-11-11T01:36:59.825Z,9.75
2017-11-11T01:39:26.707Z,9.70
2017-11-11T01:41:54.414Z,10.05
2017-11-11T01:44:21.339Z,9.35
2017-11-11T01:46:48.260Z,12.43
2017-11-11T01:49:15.968Z,8.15
2017-11-11T01:51:42.936Z,7.80
2017-11-11T01:54:09.813Z,7.90
2017-11-11T01:56:37.432Z,9.40
2017-11-11T01:59:04.507Z,8.25
2017-11-11T02:01:31.497Z,9.30
2017-11-11T02:03:58.513Z,10.38
2017-11-11T02:06:25.957Z,9.00
2017-11-11T02:08:52.905Z,12.23
2017-11-11T02:11:19.846Z,7.93
2017-11-11T02:13:46.826Z,8.82
2017-11-11T02:16:13.741Z,13.60
2017-11-11T02:18:40.725Z,7.37
2017-11-11T02:21:07.678Z,10.23
2017-11-11T02:23:34.657Z,8.48
2017-11-11T02:26:01.681Z,5.50
2017-11-11T02:28:28.766Z,9.13
2017-11-11T02:30:55.769Z,13.32
2017-11-11T02:33:22.793Z,10.68
2017-11-11T02:35:49.785Z,8.05
2017-11-11T02:38:16.736Z,9.27
2017-11-11T02:40:43.737Z,6.32
2017-11-11T02:43:10.781Z,10.18
2017-11-11T02:45:37.829Z,8.38
2017-11-11T02:48:04.789Z,8.48
2017-11-11T02:50:32.505Z,9.98
2017-11-11T02:52:59.502Z,8.60
2017-11-11T02:55:27.293Z,10.15
2017-11-11T02:57:54.209Z,7.85
2017-11-11T03:00:21.922Z,12.07
2017-11-11T03:02:48.826Z,8.00
2017-11-11T03:05:16.537Z,15.13
2017-11-11T03:07:43.447Z,14.23
2017-11-11T03:10:10.405Z,9.85
2017-11-11T03:12:37.356Z,8.50
2017-11-11T03:15:04.281Z,9.95
2017-11-11T03:17:31.193Z,7.37
2017-11-11T03:19:58.190Z,10.52
2017-11-11T03:22:25.135Z,10.02
2017-11-11T03:24:52.041Z,10.18
2017-11-11T03:27:18.966Z,13.50
2017-11-11T03:29:45.860Z,14.52
2017-11-11T03:32:12.805Z,9.05
2017-11-11T03:34:39.669Z,11.73
2017-11-11T03:37:06.616Z,6.97
2017-11-11T03:39:33.526Z,11.73
2017-11-11T03:42:00.536Z,7.60
2017-11-11T03:44:27.413Z,8.55
2017-11-11T03:46:55.059Z,11.07
2017-11-11T03:49:22.773Z,9.60
2017-11-11T03:51:49.669Z,15.63
2017-11-11T03:54:16.614Z,8.50
2017-11-11T03:56:43.540Z,10.57
2017-11-11T03:59:10.418Z,8.02
2017-11-11T04:01:38.098Z,9.98
2017-11-11T04:04:05.797Z,11.90
2017-11-11T04:06:32.718Z,8.93
2017-11-11T04:08:59.605Z,11.48
2017-11-11T04:11:26.621Z,9.88
2017-11-11T04:13:53.521Z,12.70
2017-11-11T04:16:20.456Z,12.77
2017-11-11T04:18:47.330Z,10.98
2017-11-11T04:21:15.123Z,15.43
2017-11-11T04:23:42.004Z,8.55
2017-11-11T04:26:08.878Z,14.55
2017-11-11T04:28:36.567Z,8.32
2017-11-11T04:31:03.457Z,8.90
2017-11-11T04:33:30.397Z,13.18
2017-11-11T04:35:57.295Z,8.73
2017-11-11T04:38:24.264Z,12.05
2017-11-11T04:40:51.159Z,10.68
2017-11-11T04:43:18.036Z,11.10
2017-11-11T04:45:44.980Z,13.70
2017-11-11T04:48:11.913Z,14.98
2017-11-11T04:50:38.925Z,15.48
2017-11-11T04:53:05.979Z,14.38
2017-11-11T04:55:32.945Z,13.77
2017-11-11T04:57:59.810Z,16.58
2017-11-11T05:00:27.458Z,12.15
2017-11-11T05:02:55.200Z,13.05
2017-11-11T05:05:22.137Z,13.80
2017-11-11T05:07:49.029Z,12.10
2017-11-11T05:10:16.759Z,13.38
2017-11-11T05:12:43.732Z,10.95
2017-11-11T05:15:10.610Z,16.55
2017-11-11T05:17:37.602Z,17.05
2017-11-11T05:20:04.643Z,13.10
2017-11-11T05:22:31.542Z,14.65
2017-11-11T05:24:58.635Z,11.65
2017-11-11T05:27:25.622Z,13.05
2017-11-11T05:29:53.240Z,11.85
2017-11-11T05:32:20.177Z,14.57
2017-11-11T05:34:47.128Z,11.20
2017-11-11T05:37:14.195Z,12.45
2017-11-11T05:39:41.089Z,12.18
2017-11-11T05:42:07.961Z,15.38
2017-11-11T05:44:34.913Z,14.00
2017-11-11T05:47:01.826Z,13.35
2017-11-11T05:49:28.773Z,14.20
2017-11-11T05:51:55.653Z,15.93
2017-11-11T05:54:22.704Z,16.92
2017-11-11T05:56:49.591Z,15.55
2017-11-11T05:59:17.290Z,15.38
2017-11-11T06:01:44.236Z,11.98
2017-11-11T06:04:11.129Z,16.37
2017-11-11T06:06:38.088Z,15.20
2017-11-11T06:09:04.982Z,15.85
2017-11-11T06:11:31.921Z,17.55
2017-11-11T06:13:58.793Z,18.67
2017-11-11T06:16:25.729Z,17.27
2017-11-11T06:18:52.710Z,11.20
2017-11-11T06:21:20.500Z,14.85
2017-11-11T06:23:47.396Z,14.43
2017-11-11T06:26:16.425Z,15.93
2017-11-11T06:28:43.292Z,15.52
2017-11-11T06:31:10.282Z,16.62
2017-11-11T06:33:37.254Z,14.07
2017-11-11T06:36:07.365Z,17.48
2017-11-11T06:38:36.115Z,16.27
2017-11-11T06:41:03.117Z,16.58
2017-11-11T06:43:31.357Z,20.37
2017-11-11T06:45:58.252Z,19.80
2017-11-11T06:48:28.277Z,15.00
2017-11-11T06:50:55.376Z,13.35
2017-11-11T06:53:22.252Z,17.58
2017-11-11T06:55:50.113Z,11.90
2017-11-11T06:58:18.597Z,15.13
2017-11-11T07:01:00.993Z,17.10
2017-11-11T07:03:31.885Z,12.48
2017-11-11T07:05:59.021Z,16.05
2017-11-11T07:08:26.060Z,15.30
2017-11-11T07:10:52.939Z,25.58
2017-11-11T07:13:19.989Z,16.65
2017-11-11T07:15:46.950Z,18.62
2017-11-11T07:18:14.390Z,20.80
2017-11-11T07:20:41.518Z,14.25
2017-11-11T07:23:08.472Z,18.05
2017-11-11T07:25:35.597Z,18.92
2017-11-11T07:28:04.372Z,20.85
2017-11-11T07:30:32.392Z,13.95
2017-11-11T07:32:59.409Z,12.02
2017-11-11T07:35:26.373Z,14.70
2017-11-11T07:37:53.609Z,22.33
2017-11-11T07:40:21.324Z,17.77
2017-11-11T07:42:48.246Z,11.18
2017-11-11T07:45:17.490Z,18.33
2017-11-11T07:47:51.022Z,16.20
2017-11-11T07:50:23.414Z,17.40
2017-11-11T07:52:54.839Z,17.33
2017-11-11T07:55:21.747Z,17.20
2017-11-11T07:57:48.639Z,15.60
2017-11-11T08:00:21.556Z,18.30
2017-11-11T08:02:49.581Z,13.62
2017-11-11T08:05:16.666Z,15.73
2017-11-11T08:07:56.972Z,17.80
2017-11-11T08:10:26.584Z,16.00
2017-11-11T08:12:54.363Z,16.27
2017-11-11T08:15:22.229Z,12.07
2017-11-11T08:17:50.584Z,12.18
2017-11-11T08:20:19.589Z,15.02
2017-11-11T08:22:51.730Z,14.57
2017-11-11T08:25:21.549Z,11.60
2017-11-11T08:27:56.437Z,10.73
2017-11-11T08:30:25.357Z,13.43
2017-11-11T08:32:56.818Z,10.98
2017-11-11T08:35:26.147Z,10.45
2017-11-11T08:37:53.263Z,13.23
2017-11-11T08:40:23.692Z,11.80
2017-11-11T08:42:52.315Z,11.93
2017-11-11T08:45:29.864Z,14.80
2017-11-11T08:47:57.004Z,14.63
2017-11-11T08:50:26.932Z,11.38
2017-11-11T08:52:53.902Z,9.90
2017-11-11T08:55:20.863Z,9.82
2017-11-11T09:03:27.519Z,15.95
2017-11-11T09:06:06.975Z,14.00
2017-11-11T09:08:47.859Z,11.10
2017-11-11T09:11:28.374Z,16.00
2017-11-11T09:14:00.184Z,9.95
2017-11-11T09:16:29.148Z,10.82
2017-11-11T09:18:56.112Z,16.30
2017-11-11T09:21:23.001Z,11.23
2017-11-11T09:23:49.996Z,12.30
2017-11-11T09:26:17.030Z,10.85
2017-11-11T09:28:44.684Z,14.98
2017-11-11T09:31:12.380Z,14.30
2017-11-11T09:33:40.778Z,9.63
2017-11-11T09:36:07.839Z,13.73
2017-11-11T09:38:35.798Z,11.18
2017-11-11T09:41:04.074Z,9.93
2017-11-11T09:43:31.069Z,12.52
2017-11-11T09:45:59.757Z,13.02
2017-11-11T09:48:36.934Z,12.20
2017-11-11T09:51:04.972Z,12.48
2017-11-11T09:53:32.025Z,10.10
2017-11-11T09:56:00.180Z,10.37
2017-11-11T09:58:36.081Z,11.70
2017-11-11T10:01:03.879Z,12.05
2017-11-11T10:03:31.742Z,10.20
2017-11-11T10:06:07.371Z,13.63
2017-11-11T10:08:47.763Z,10.83
2017-11-11T10:11:17.426Z,16.73
2017-11-11T10:13:44.661Z,12.93
2017-11-11T10:16:14.571Z,11.80
2017-11-11T10:18:43.710Z,12.07
2017-11-11T10:21:19.941Z,10.73
2017-11-11T10:23:48.792Z,13.20
2017-11-11T10:26:15.732Z,7.80
2017-11-11T10:28:44.949Z,10.30
2017-11-11T10:31:12.798Z,16.57
2017-11-11T10:33:40.656Z,9.40
2017-11-11T10:36:07.961Z,13.00
2017-11-11T10:38:39.466Z,13.10
2017-11-11T10:41:15.119Z,13.47
2017-11-11T10:43:54.460Z,12.33
2017-11-11T10:46:26.167Z,11.30
2017-11-11T10:51:38.966Z,12.90
2017-11-11T10:54:11.422Z,9.38
2017-11-11T10:56:50.721Z,10.77
2017-11-11T10:59:21.114Z,12.02
2017-11-11T11:01:48.890Z,11.67
2017-11-11T11:04:15.944Z,13.13
2017-11-11T11:06:42.926Z,12.10
2017-11-11T11:09:09.888Z,9.60
2017-11-11T11:11:36.813Z,8.77
2017-11-11T11:14:03.987Z,9.70
2017-11-11T11:16:30.913Z,8.63
2017-11-11T11:18:57.946Z,9.77
2017-11-11T11:21:26.055Z,13.50
2017-11-11T11:23:58.058Z,9.40
2017-11-11T11:26:25.604Z,9.80
2017-11-11T11:28:53.598Z,10.13
2017-11-11T11:31:22.235Z,11.87
2017-11-11T11:33:50.935Z,9.83
2017-11-11T11:36:19.938Z,9.77
2017-11-11T11:38:46.951Z,9.97
2017-11-11T11:41:15.157Z,11.23
2017-11-11T11:43:49.482Z,7.20
2017-11-11T11:46:16.605Z,8.17
2017-11-11T11:48:44.467Z,7.53
2017-11-11T11:51:12.591Z,11.23
2017-11-11T11:53:40.970Z,7.70
2017-11-11T11:56:18.372Z,10.00
2017-11-11T11:58:55.392Z,8.03
2017-11-11T12:01:35.695Z,8.07
2017-11-11T12:04:10.446Z,8.47
2017-11-11T12:06:48.647Z,8.63
2017-11-11T12:09:23.585Z,8.97
2017-11-11T12:12:00.838Z,7.70
2017-11-11T12:14:40.681Z,8.53
2017-11-11T12:17:20.390Z,6.43
2017-11-11T12:20:02.019Z,8.97
2017-11-11T12:22:38.336Z,7.23
2017-11-11T12:25:07.375Z,6.37
2017-11-11T12:27:44.955Z,5.00
2017-11-11T12:30:12.961Z,6.90
2017-11-11T12:32:43.297Z,8.87
2017-11-11T12:35:20.552Z,5.53
2017-11-11T12:37:59.662Z,6.90
2017-11-11T12:40:39.116Z,8.43
2017-11-11T12:43:12.917Z,9.13
2017-11-11T12:45:42.494Z,8.83
2017-11-11T12:48:12.397Z,7.97
2017-11-11T12:50:45.228Z,7.10
2017-11-11T12:53:19.493Z,8.07
2017-11-11T12:55:53.615Z,6.80
2017-11-11T12:58:20.669Z,5.95
2017-11-11T13:00:48.252Z,9.83
2017-11-11T13:03:21.503Z,6.37
2017-11-11T13:05:59.821Z,5.93
2017-11-11T13:08:39.275Z,7.13
2017-11-11T13:11:18.073Z,6.37
2017-11-11T13:13:59.382Z,5.50
2017-11-11T13:16:37.502Z,7.03
2017-11-11T13:19:13.660Z,6.83
2017-11-11T13:21:52.710Z,6.37
2017-11-11T13:24:32.897Z,6.70
2017-11-11T13:27:06.340Z,6.93
2017-11-11T13:29:33.361Z,13.40
2017-11-11T13:32:11.279Z,7.13
2017-11-11T13:34:48.285Z,6.73
2017-11-11T13:37:27.707Z,5.70
2017-11-11T13:39:55.541Z,6.70
2017-11-11T13:42:32.984Z,6.47
2017-11-11T13:45:07.028Z,6.87
2017-11-11T13:47:37.148Z,6.77
2017-11-11T13:50:08.783Z,6.07
2017-11-11T13:52:35.789Z,9.97
2017-11-11T13:55:03.538Z,7.90
2017-11-11T13:57:30.653Z,7.37
2017-11-11T13:59:58.557Z,12.83
2017-11-11T14:02:25.437Z,12.70
2017-11-11T14:04:52.421Z,6.97
2017-11-11T14:07:19.300Z,14.23
2017-11-11T14:09:47.084Z,7.20
2017-11-11T14:12:14.785Z,5.93
2017-11-11T14:14:41.757Z,7.97
2017-11-11T14:17:08.844Z,6.40
2017-11-11T14:19:37.143Z,8.03
2017-11-11T14:22:04.099Z,7.10
2017-11-11T14:24:31.001Z,8.40
2017-11-11T14:26:58.666Z,6.20
2017-11-11T14:29:26.472Z,7.40
2017-11-11T14:31:55.216Z,7.63
2017-11-11T14:34:22.837Z,7.90
2017-11-11T14:36:56.836Z,7.50
2017-11-11T14:39:27.393Z,6.73
2017-11-11T14:41:55.734Z,7.23
2017-11-11T14:44:27.215Z,7.33
2017-11-11T14:46:55.327Z,6.63
2017-11-11T14:49:22.804Z,7.13
2017-11-11T14:51:51.672Z,6.70
2017-11-11T14:54:19.610Z,7.57
2017-11-11T14:56:51.905Z,6.80
2017-11-11T14:59:20.469Z,7.73
2017-11-11T15:01:47.427Z,7.10
2017-11-11T15:04:14.311Z,5.60
2017-11-11T15:06:53.553Z,7.93
2017-11-11T15:09:30.296Z,6.57
2017-11-11T15:11:57.930Z,6.70
2017-11-11T15:14:30.497Z,6.73
2017-11-11T15:17:08.721Z,6.60
2017-11-11T15:19:36.390Z,6.47
2017-11-11T15:22:03.697Z,7.53
2017-11-11T15:24:30.677Z,6.47
2017-11-11T15:27:17.736Z,7.03
2017-11-11T15:32:47.412Z,8.20
2017-11-11T15:35:24.348Z,7.83
2017-11-11T15:37:58.676Z,8.23
2017-11-11T15:40:39.813Z,6.83
2017-11-11T15:43:24.094Z,6.60
2017-11-11T15:45:52.714Z,6.83
2017-11-11T15:48:20.415Z,7.30
2017-11-11T15:50:47.273Z,5.63
2017-11-11T15:53:17.427Z,6.27
2017-11-11T15:55:44.642Z,5.70
2017-11-11T15:58:15.677Z,5.83
2017-11-11T16:00:42.632Z,7.67
2017-11-11T16:03:16.721Z,7.00
2017-11-11T16:05:52.186Z,7.27
2017-11-11T16:08:24.550Z,7.30
2017-11-11T16:10:58.581Z,6.43
2017-11-11T16:13:27.936Z,5.90
2017-11-11T16:15:57.517Z,7.17
2017-11-11T16:18:28.252Z,8.60
2017-11-11T16:20:59.028Z,7.20
2017-11-11T16:23:34.904Z,9.40
2017-11-11T16:26:04.447Z,7.17
2017-11-11T16:28:33.598Z,9.63
2017-11-11T16:31:05.512Z,7.20
2017-11-11T16:33:33.990Z,7.70
2017-11-11T16:36:12.413Z,7.23
2017-11-11T16:38:52.110Z,6.70
2017-11-11T16:41:33.359Z,5.97
2017-11-11T16:44:13.986Z,7.17
2017-11-11T16:46:41.553Z,8.60
2017-11-11T16:49:14.152Z,11.00
2017-11-11T16:51:43.771Z,9.50
2017-11-11T16:54:10.705Z,7.10
2017-11-11T16:56:38.437Z,8.40
2017-11-11T16:59:05.333Z,7.63
2017-11-11T17:01:32.256Z,7.23
2017-11-11T17:03:59.989Z,7.70
2017-11-11T17:06:26.882Z,8.60
2017-11-11T17:08:55.563Z,8.40
2017-11-11T17:11:22.477Z,8.60
2017-11-11T17:13:50.581Z,7.13
2017-11-11T17:16:18.948Z,9.13
2017-11-11T17:18:45.926Z,11.63
2017-11-11T17:21:13.826Z,10.37
2017-11-11T17:23:43.588Z,14.67
2017-11-11T17:26:12.057Z,9.60
2017-11-11T17:28:40.956Z,10.57
2017-11-11T17:31:10.352Z,13.13
2017-11-11T17:33:48.937Z,9.60
2017-11-11T17:36:28.798Z,7.37
2017-11-11T17:39:09.551Z,5.10
2017-11-11T17:41:37.274Z,6.47
2017-11-11T17:44:04.217Z,5.83
2017-11-11T17:46:33.569Z,5.33
2017-11-11T17:49:00.576Z,4.57
2017-11-11T17:51:31.526Z,4.90
2017-11-11T17:54:11.189Z,7.90
2017-11-11T17:56:41.516Z,8.10
2017-11-11T17:59:08.393Z,6.10
2017-11-11T18:01:37.153Z,8.20
2017-11-11T18:04:05.266Z,8.00
2017-11-11T18:06:33.313Z,7.90
2017-11-11T18:09:01.092Z,7.37
2017-11-11T18:11:29.501Z,7.07
2017-11-11T18:13:58.535Z,9.17
2017-11-11T18:16:25.433Z,7.20
2017-11-11T18:18:52.289Z,6.63
2017-11-11T18:21:21.463Z,8.53
2017-11-11T18:23:49.950Z,9.83
2017-11-11T18:26:16.974Z,8.60
2017-11-11T18:28:43.844Z,10.10
2017-11-11T18:31:10.761Z,11.20
2017-11-11T18:33:37.749Z,10.23
2017-11-11T18:36:07.057Z,10.20
2017-11-11T18:38:34.828Z,9.10
2017-11-11T18:41:03.164Z,10.07
2017-11-11T18:43:31.586Z,11.50
2017-11-11T18:45:58.616Z,9.40
2017-11-11T18:48:26.157Z,8.30
2017-11-11T18:50:53.301Z,7.67
2017-11-11T18:53:21.285Z,7.20
2017-11-11T18:55:48.890Z,5.23
2017-11-11T18:58:16.685Z,6.17
2017-11-11T19:00:44.891Z,6.67
2017-11-11T19:03:12.924Z,5.47
2017-11-11T19:05:41.291Z,5.30
2017-11-11T19:08:09.306Z,4.93
2017-11-11T19:10:38.630Z,5.23
2017-11-11T19:13:06.566Z,5.40
2017-11-11T19:15:34.780Z,3.93
2017-11-11T19:18:01.893Z,5.07
2017-11-11T19:20:28.926Z,3.60
2017-11-11T19:22:55.834Z,3.73
2017-11-11T19:25:23.703Z,3.63
2017-11-11T19:27:51.807Z,4.37
2017-11-11T19:30:18.872Z,5.97
2017-11-11T19:32:47.106Z,4.30
2017-11-11T19:35:14.717Z,3.67
2017-11-11T19:37:43.139Z,6.00
2017-11-11T19:40:11.857Z,10.57
2017-11-11T19:42:39.974Z,17.80
2017-11-11T19:45:08.722Z,17.90
2017-11-11T19:47:36.923Z,14.27
2017-11-11T19:50:04.796Z,11.07
2017-11-11T19:52:32.539Z,10.90
2017-11-11T19:55:00.169Z,12.30
2017-11-11T19:57:28.313Z,10.97
2017-11-11T19:59:56.833Z,9.30
2017-11-11T20:02:23.842Z,11.20
2017-11-11T20:04:51.881Z,9.60
2017-11-11T20:07:19.413Z,8.60
2017-11-11T20:09:46.492Z,8.80
2017-11-11T20:12:13.384Z,8.87
2017-11-11T20:14:40.417Z,7.80
2017-11-11T20:17:08.135Z,6.97
2017-11-11T20:19:36.590Z,8.77
2017-11-11T20:22:10.164Z,8.00
2017-11-11T20:24:38.340Z,6.10
2017-11-11T20:27:06.579Z,6.57
2017-11-11T20:29:36.852Z,6.63
2017-11-11T20:32:05.980Z,4.90
2017-11-11T20:34:34.888Z,5.40
2017-11-11T20:37:13.462Z,8.00
2017-11-11T20:39:46.911Z,5.87
2017-11-11T20:42:15.159Z,5.37
2017-11-11T20:44:45.588Z,6.53
2017-11-11T20:47:13.718Z,6.47
2017-11-11T20:49:41.480Z,6.60
2017-11-11T20:52:09.480Z,6.80
2017-11-11T20:54:37.703Z,6.47
2017-11-11T20:57:07.729Z,8.30
2017-11-11T20:59:44.107Z,8.67
2017-11-11T21:02:12.534Z,10.53
2017-11-11T21:04:40.411Z,6.83
2017-11-11T21:07:07.708Z,8.77
2017-11-11T21:09:47.188Z,10.60
2017-11-11T21:12:29.374Z,8.45
2017-11-11T21:15:14.744Z,8.10
2017-11-11T21:17:55.462Z,8.93
2017-11-11T21:20:36.823Z,8.10
2017-11-11T21:23:09.121Z,9.80
2017-11-11T21:28:25.968Z,8.70
2017-11-11T21:30:55.580Z,14.23
2017-11-11T21:33:29.065Z,14.03
2017-11-11T21:36:05.866Z,13.00
2017-11-11T21:38:35.494Z,10.63
2017-11-11T21:41:13.630Z,13.50
2017-11-11T21:43:41.040Z,12.87
2017-11-11T21:46:18.007Z,14.18
2017-11-11T21:48:46.637Z,17.63
2017-11-11T21:51:19.424Z,14.50
2017-11-11T21:53:55.166Z,17.83
2017-11-11T21:56:33.289Z,14.00
2017-11-11T21:59:11.714Z,17.62
2017-11-11T22:01:49.715Z,16.40
2017-11-11T22:04:27.218Z,15.90
2017-11-11T22:07:01.867Z,18.10
2017-11-11T22:09:42.906Z,16.65
2017-11-11T22:12:19.363Z,19.12
2017-11-11T22:14:59.726Z,17.47
2017-11-11T22:20:22.005Z,17.70
2017-11-11T22:22:48.983Z,21.35
2017-11-11T22:25:18.953Z,19.00
2017-11-11T22:27:50.608Z,15.53
2017-11-11T22:30:17.478Z,15.80
2017-11-11T22:32:55.590Z,14.33
2017-11-11T22:35:24.045Z,15.75
2017-11-11T22:37:52.590Z,13.50
2017-11-11T22:40:30.291Z,13.23
2017-11-11T22:42:57.795Z,12.07
2017-11-11T22:45:38.309Z,12.50
2017-11-11T22:48:07.979Z,12.60
2017-11-11T22:50:44.349Z,15.23
2017-11-11T22:53:22.188Z,15.73
2017-11-11T22:55:59.561Z,13.37
2017-11-11T22:58:29.713Z,17.70
2017-11-11T23:01:07.108Z,12.23
2017-11-11T23:03:35.623Z,13.30
2017-11-11T23:06:03.353Z,12.25
2017-11-11T23:08:30.293Z,11.05
2017-11-11T23:11:07.812Z,11.67
2017-11-11T23:13:47.507Z,12.45
2017-11-11T23:16:23.369Z,10.40
2017-11-11T23:18:55.063Z,11.10
2017-11-11T23:21:31.529Z,12.02
2017-11-11T23:24:05.949Z,10.95
2017-11-11T23:26:33.718Z,13.60
2017-11-11T23:29:10.588Z,11.30
2017-11-11T23:31:47.130Z,12.68
2017-11-11T23:34:22.181Z,12.63
2017-11-11T23:37:00.660Z,15.07
2017-11-11T23:39:30.421Z,18.77
2017-11-11T23:42:02.475Z,16.58
2017-11-11T23:44:37.641Z,14.32
2017-11-11T23:47:08.207Z,15.98
2017-11-11T23:49:45.391Z,13.07
2017-11-11T23:52:20.810Z,13.95
2017-11-11T23:54:47.706Z,19.62
2017-11-11T23:57:14.826Z,16.77
2017-11-11T23:59:54.316Z,14.30
